Pagina principale
METAR-TAF:

METAR-TAF

Aeroporti :

Roma, Italia

Aeroporto di Roma-Urbe

latitudine: 41-57N, longitudine: 012-30E, altezza: 18 m

Osservazione

Il bollettino è stato emesso 1 ora e 4 minuti fa, alle 14:50 UTC
Vento 2 kt da direzioni variabili
Temperature 15°C
Umidità 63%
Pressione 1013 hPa
Visibilità 10 km o più
Nubi sparse ad un'altezza di 3000 ft

METAR: LIRU 191450Z VRB02KT 9999 SCT030 15/08 Q1013

Ora: 16:54 (15:54 UTC)

Previsione

Il bollettino è stato emesso 1 ora e 54 minuti fa, alle 14:00 UTC
Previsione valida dal 19 alle 15 UTC al 19 alle 24 UTC
Vento 6 kt da direzioni variabili
Visibilità 10 km o più
nessuna nube inferiore a 1500 m e nessun cumulonembo

TAF: LIRU 191400Z 1915/1924 VRB06KT CAVOK

Osservazioni e previsioni meteorologiche di più di 4000 aeroporti (messaggi METAR e TAF).

Le stazioni disponibili sono rappresentate dai dischi gialli e rossi sulla carta.

Puntare il mouse per vedere il nome della stazione.

Clicca sopra per visualizzare le osservazioni e previsioni meteorologiche.

Per cambiare la mappa : fare clic sui pulsanti verdi con una croce nera per ingrandire, il pulsante verde con un trattino per diminuire, o sulla freccia verde per le mappe adiacenti.


METAR-TAF: